createdAt,value
2023-10-03T00:00:32.257Z,75.38
2023-10-03T00:01:32.199Z,76.09
2023-10-03T00:02:32.256Z,75.89
2023-10-03T00:03:32.256Z,75.59
2023-10-03T00:04:32.252Z,76.09
2023-10-03T00:05:32.184Z,76.09
2023-10-03T00:06:32.141Z,76.69
2023-10-03T00:07:32.148Z,76.49
2023-10-03T00:08:32.145Z,76.19
2023-10-03T00:09:32.109Z,76.89
2023-10-03T00:10:32.105Z,76.79
2023-10-03T00:11:32.157Z,76.79
2023-10-03T00:12:32.100Z,76.89
2023-10-03T00:13:32.070Z,76.89
2023-10-03T00:14:32.116Z,77.00
2023-10-03T00:15:32.043Z,77.00
2023-10-03T00:16:32.070Z,77.09
2023-10-03T00:17:32.075Z,76.69
2023-10-03T00:18:32.050Z,76.89
2023-10-03T00:19:32.056Z,76.89
2023-10-03T00:20:32.015Z,77.00
2023-10-03T00:21:32.027Z,76.79
2023-10-03T00:22:31.972Z,76.79
2023-10-03T00:23:32.019Z,76.39
2023-10-03T00:24:31.956Z,76.53
2023-10-03T00:25:31.960Z,76.89
2023-10-03T00:26:31.951Z,76.83
2023-10-03T00:27:31.911Z,77.03
2023-10-03T00:28:31.905Z,76.83
2023-10-03T00:29:31.966Z,76.63
2023-10-03T00:30:31.935Z,77.13
2023-10-03T00:31:31.905Z,77.13
2023-10-03T00:32:31.946Z,77.03
2023-10-03T00:33:31.936Z,76.93
2023-10-03T00:34:31.840Z,77.03
2023-10-03T00:35:31.883Z,76.83
2023-10-03T00:36:31.817Z,77.03
2023-10-03T00:37:31.811Z,76.93
2023-10-03T00:38:31.837Z,76.87
2023-10-03T00:39:31.784Z,76.93
2023-10-03T00:40:31.788Z,77.13
2023-10-03T00:41:31.797Z,77.07
2023-10-03T00:42:31.751Z,76.87
2023-10-03T00:43:31.743Z,76.67
2023-10-03T00:44:31.775Z,77.17
2023-10-03T00:45:31.737Z,77.17
2023-10-03T00:46:31.768Z,76.97
2023-10-03T00:47:31.751Z,76.87
2023-10-03T00:48:31.822Z,76.87
2023-10-03T00:49:31.692Z,77.17
2023-10-03T00:50:31.749Z,77.47
2023-10-03T00:51:31.718Z,77.37
2023-10-03T00:52:31.642Z,77.27
2023-10-03T00:53:31.725Z,77.17
2023-10-03T00:54:31.642Z,76.97
2023-10-03T00:55:31.611Z,76.97
2023-10-03T00:56:31.683Z,77.11
2023-10-03T00:57:31.593Z,77.11
2023-10-03T00:58:31.596Z,77.20
2023-10-03T00:59:31.697Z,77.20
2023-10-03T01:00:31.561Z,77.77
2023-10-03T01:01:31.546Z,77.70
2023-10-03T01:02:31.684Z,77.20
2023-10-03T01:03:31.629Z,77.70
2023-10-03T01:04:31.645Z,77.81
2023-10-03T01:05:31.532Z,77.57
2023-10-03T01:06:31.509Z,77.70
2023-10-03T01:07:31.483Z,77.61
2023-10-03T01:08:31.542Z,77.61
2023-10-03T01:09:31.468Z,77.70
2023-10-03T01:10:31.452Z,77.61
2023-10-03T01:11:31.457Z,77.61
2023-10-03T01:12:31.438Z,77.50
2023-10-03T01:13:31.436Z,77.50
2023-10-03T01:14:31.443Z,77.61
2023-10-03T01:15:31.392Z,77.61
2023-10-03T01:16:31.402Z,77.70
2023-10-03T01:17:31.503Z,77.81
2023-10-03T01:18:31.377Z,77.81
2023-10-03T01:19:31.420Z,77.91
2023-10-03T01:20:31.362Z,77.61
2023-10-03T01:21:31.331Z,77.61
2023-10-03T01:22:31.391Z,77.11
2023-10-03T01:23:31.337Z,77.20
2023-10-03T01:24:31.299Z,77.11
2023-10-03T01:25:31.285Z,77.11
2023-10-03T01:26:31.320Z,77.11
2023-10-03T01:27:31.284Z,77.11
2023-10-03T01:28:31.257Z,77.11
2023-10-03T01:29:31.282Z,77.24
2023-10-03T01:30:31.254Z,77.75
2023-10-03T01:31:31.254Z,77.31
2023-10-03T01:32:31.301Z,77.61
2023-10-03T01:33:31.253Z,77.00
2023-10-03T01:34:31.188Z,77.14
2023-10-03T01:35:31.199Z,77.24
2023-10-03T01:36:31.193Z,77.84
2023-10-03T01:37:31.153Z,77.34
2023-10-03T01:38:31.335Z,77.84
2023-10-03T01:39:31.139Z,77.34
2023-10-03T01:40:31.146Z,77.84
2023-10-03T01:41:31.173Z,77.64
2023-10-03T01:42:31.104Z,77.64
2023-10-03T01:43:31.089Z,77.84
2023-10-03T01:44:31.104Z,77.44
2023-10-03T01:45:31.102Z,77.84
2023-10-03T01:46:31.109Z,77.34
2023-10-03T01:47:31.121Z,77.44
2023-10-03T01:48:31.055Z,77.55
2023-10-03T01:49:31.027Z,77.95
2023-10-03T01:50:31.213Z,77.44
2023-10-03T01:51:31.007Z,77.84
2023-10-03T01:52:31.013Z,77.24
2023-10-03T01:53:30.998Z,77.24
2023-10-03T01:54:30.979Z,77.24
2023-10-03T01:55:30.971Z,77.17
2023-10-03T01:56:30.987Z,77.28
2023-10-03T01:57:30.937Z,77.58
2023-10-03T01:58:30.929Z,77.44
2023-10-03T01:59:30.946Z,77.34
2023-10-03T02:00:30.906Z,77.28
2023-10-03T02:01:30.984Z,77.78
2023-10-03T02:02:30.929Z,77.78
2023-10-03T02:03:31.031Z,77.48
2023-10-03T02:04:31.103Z,77.98
2023-10-03T02:05:30.870Z,77.98
2023-10-03T02:06:30.839Z,78.08
2023-10-03T02:07:30.826Z,78.08
2023-10-03T02:08:30.907Z,78.08
2023-10-03T02:09:30.831Z,78.19
2023-10-03T02:10:30.796Z,78.08
2023-10-03T02:11:30.901Z,77.88
2023-10-03T02:12:30.772Z,77.92
2023-10-03T02:13:30.788Z,78.28
2023-10-03T02:14:30.787Z,78.32
2023-10-03T02:15:30.752Z,77.88
2023-10-03T02:16:30.747Z,78.08
2023-10-03T02:17:30.775Z,77.92
2023-10-03T02:18:30.785Z,77.92
2023-10-03T02:19:30.697Z,78.12
2023-10-03T02:20:30.712Z,78.12
2023-10-03T02:21:30.672Z,78.22
2023-10-03T02:22:30.675Z,78.12
2023-10-03T02:23:30.729Z,78.63
2023-10-03T02:24:30.665Z,78.42
2023-10-03T02:25:30.649Z,78.63
2023-10-03T02:26:30.669Z,78.32
2023-10-03T02:27:30.756Z,78.22
2023-10-03T02:28:32.782Z,78.52
2023-10-03T02:29:30.644Z,78.32
2023-10-03T02:30:30.582Z,78.52
2023-10-03T02:31:30.607Z,78.66
2023-10-03T02:32:30.613Z,79.36
2023-10-03T02:33:30.578Z,79.36
2023-10-03T02:34:30.530Z,78.96
2023-10-03T02:35:30.567Z,78.96
2023-10-03T02:36:30.511Z,78.96
2023-10-03T02:37:30.518Z,78.86
2023-10-03T02:38:30.537Z,79.16
2023-10-03T02:39:30.473Z,79.06
2023-10-03T02:40:30.502Z,79.36
2023-10-03T02:41:30.510Z,79.36
2023-10-03T02:42:30.479Z,78.39
2023-10-03T02:43:30.436Z,78.26
2023-10-03T02:44:30.450Z,78.06
2023-10-03T02:45:30.409Z,78.36
2023-10-03T02:46:30.433Z,77.99
2023-10-03T02:47:30.463Z,77.75
2023-10-03T02:48:30.506Z,77.86
2023-10-03T02:49:30.365Z,77.79
2023-10-03T02:50:30.401Z,78.06
2023-10-03T02:51:30.370Z,77.86
2023-10-03T02:52:30.339Z,77.69
2023-10-03T02:53:30.426Z,77.49
2023-10-03T02:54:30.334Z,77.55
2023-10-03T02:55:30.405Z,77.89
2023-10-03T02:56:30.398Z,78.19
2023-10-03T02:57:30.278Z,78.59
2023-10-03T02:58:30.275Z,77.99
2023-10-03T02:59:30.318Z,77.69
2023-10-03T03:00:30.275Z,77.99
2023-10-03T03:01:30.282Z,77.59
2023-10-03T03:02:30.326Z,77.59
2023-10-03T03:03:30.378Z,77.79
2023-10-03T03:04:30.298Z,77.42
2023-10-03T03:05:30.313Z,77.79
2023-10-03T03:06:30.180Z,77.89
2023-10-03T03:07:30.166Z,77.83
2023-10-03T03:08:30.386Z,78.03
2023-10-03T03:09:30.143Z,78.23
2023-10-03T03:10:30.152Z,78.23
2023-10-03T03:11:30.199Z,78.23
2023-10-03T03:12:30.130Z,78.23
2023-10-03T03:13:30.103Z,79.17
2023-10-03T03:14:30.133Z,79.48
2023-10-03T03:15:30.097Z,79.58
2023-10-03T03:16:30.127Z,79.38
2023-10-03T03:17:30.142Z,79.68
2023-10-03T03:18:30.091Z,79.48
2023-10-03T03:19:30.055Z,79.38
2023-10-03T03:20:30.073Z,79.24
2023-10-03T03:21:30.016Z,79.44
2023-10-03T03:22:30.018Z,79.14
2023-10-03T03:23:30.034Z,79.24
2023-10-03T03:24:30.002Z,79.34
2023-10-03T03:25:29.973Z,79.24
2023-10-03T03:26:30.052Z,79.34
2023-10-03T03:27:29.952Z,78.63
2023-10-03T03:28:29.995Z,78.63
2023-10-03T03:29:29.978Z,78.74
2023-10-03T03:30:29.921Z,78.39
2023-10-03T03:31:29.954Z,78.30
2023-10-03T03:32:29.963Z,78.03
2023-10-03T03:33:30.065Z,78.03
2023-10-03T03:34:30.006Z,78.13
2023-10-03T03:35:29.904Z,78.23
2023-10-03T03:36:29.858Z,78.33
2023-10-03T03:37:29.857Z,77.93
2023-10-03T03:38:29.898Z,78.97
2023-10-03T03:39:29.823Z,79.28
2023-10-03T03:40:29.814Z,79.38
2023-10-03T03:41:29.843Z,79.58
2023-10-03T03:42:29.872Z,79.58
2023-10-03T03:43:29.823Z,79.38
2023-10-03T03:44:29.846Z,79.28
2023-10-03T03:45:29.787Z,79.38
2023-10-03T03:46:29.754Z,79.17
2023-10-03T03:47:29.839Z,79.04
2023-10-03T03:48:29.818Z,79.44
2023-10-03T03:49:29.714Z,79.38
2023-10-03T03:50:31.006Z,79.28
2023-10-03T03:51:29.733Z,79.38
2023-10-03T03:52:29.697Z,79.08
2023-10-03T03:53:29.696Z,79.38
2023-10-03T03:54:29.665Z,79.17
2023-10-03T03:55:29.666Z,79.38
2023-10-03T03:56:29.805Z,79.28
2023-10-03T03:57:29.631Z,79.17
2023-10-03T03:58:29.620Z,79.38
2023-10-03T03:59:29.644Z,79.28
2023-10-03T04:00:29.621Z,79.17
2023-10-03T04:01:29.657Z,79.17
2023-10-03T04:02:37.654Z,79.28
2023-10-03T04:03:29.774Z,79.08
2023-10-03T04:04:29.639Z,79.24
2023-10-03T04:05:29.579Z,78.77
2023-10-03T04:06:29.546Z,78.43
2023-10-03T04:07:29.516Z,78.53
2023-10-03T04:08:29.516Z,78.23
2023-10-03T04:09:29.595Z,78.13
2023-10-03T04:10:29.516Z,78.33
2023-10-03T04:11:29.481Z,77.79
2023-10-03T04:12:29.466Z,77.89
2023-10-03T04:13:29.452Z,78.09
2023-10-03T04:14:29.459Z,77.99
2023-10-03T04:15:29.461Z,77.99
2023-10-03T04:16:37.126Z,77.89
2023-10-03T04:17:29.490Z,77.89
2023-10-03T04:18:29.526Z,77.79
2023-10-03T04:19:29.385Z,77.79
2023-10-03T04:20:29.446Z,77.89
2023-10-03T04:21:29.367Z,77.89
2023-10-03T04:22:29.356Z,77.79
2023-10-03T04:23:29.375Z,77.79
2023-10-03T04:24:29.633Z,78.09
2023-10-03T04:25:29.342Z,77.83
2023-10-03T04:26:29.514Z,78.13
2023-10-03T04:27:29.299Z,78.23
2023-10-03T04:28:29.291Z,77.73
2023-10-03T04:29:29.308Z,78.13
2023-10-03T04:30:29.268Z,78.43
2023-10-03T04:31:29.405Z,77.83
2023-10-03T04:32:29.348Z,77.83
2023-10-03T04:33:29.308Z,78.03
2023-10-03T04:34:29.239Z,78.23
2023-10-03T04:35:29.308Z,78.43
2023-10-03T04:36:29.214Z,78.03
2023-10-03T04:37:29.216Z,77.83
2023-10-03T04:38:29.236Z,78.19
2023-10-03T04:39:29.186Z,78.09
2023-10-03T04:40:29.177Z,77.89
2023-10-03T04:41:29.166Z,78.33
2023-10-03T04:42:29.161Z,78.03
2023-10-03T04:43:29.149Z,78.09
2023-10-03T04:44:29.198Z,77.62
2023-10-03T04:45:29.240Z,78.03
2023-10-03T04:46:29.119Z,78.03
2023-10-03T04:47:29.208Z,77.73
2023-10-03T04:48:29.149Z,77.73
2023-10-03T04:49:29.064Z,78.03
2023-10-03T04:50:29.066Z,77.93
2023-10-03T04:51:29.042Z,77.83
2023-10-03T04:52:29.052Z,77.79
2023-10-03T04:53:29.043Z,77.99
2023-10-03T04:54:29.009Z,77.62
2023-10-03T04:55:29.005Z,77.79
2023-10-03T04:56:29.057Z,77.93
2023-10-03T04:57:29.000Z,77.99
2023-10-03T04:58:29.006Z,77.83
2023-10-03T04:59:28.973Z,77.62
2023-10-03T05:00:28.949Z,78.03
2023-10-03T05:01:28.962Z,77.53
2023-10-03T05:02:28.998Z,77.62
2023-10-03T05:03:28.999Z,77.99
2023-10-03T05:04:29.007Z,77.89
2023-10-03T05:05:28.950Z,77.39
2023-10-03T05:06:28.895Z,77.89
2023-10-03T05:07:28.886Z,77.49
2023-10-03T05:08:28.881Z,77.59
2023-10-03T05:09:28.864Z,77.49
2023-10-03T05:10:28.839Z,77.69
2023-10-03T05:11:28.895Z,77.55
2023-10-03T05:12:28.814Z,77.69
2023-10-03T05:13:28.806Z,77.45
2023-10-03T05:14:28.810Z,77.15
2023-10-03T05:15:28.810Z,77.15
2023-10-03T05:16:28.827Z,77.04
2023-10-03T05:17:28.824Z,76.44
2023-10-03T05:18:28.822Z,76.34
2023-10-03T05:19:28.739Z,76.04
2023-10-03T05:20:28.757Z,76.00
2023-10-03T05:21:28.746Z,75.90
2023-10-03T05:22:28.707Z,76.40
2023-10-03T05:23:28.733Z,75.60
2023-10-03T05:24:28.696Z,75.80
2023-10-03T05:25:28.706Z,76.00
2023-10-03T05:26:28.718Z,75.80
2023-10-03T05:27:28.654Z,75.90
2023-10-03T05:28:28.643Z,75.30
2023-10-03T05:29:28.710Z,75.36
2023-10-03T05:30:28.633Z,75.40
2023-10-03T05:31:28.652Z,75.30
2023-10-03T05:32:28.703Z,75.50
2023-10-03T05:33:28.716Z,75.60
2023-10-03T05:34:28.574Z,76.00
2023-10-03T05:35:28.631Z,75.90
2023-10-03T05:36:28.572Z,75.56
2023-10-03T05:37:28.543Z,76.07
2023-10-03T05:38:28.549Z,75.76
2023-10-03T05:39:28.537Z,75.16
2023-10-03T05:40:28.539Z,74.76
2023-10-03T05:41:28.524Z,75.10
2023-10-03T05:42:28.485Z,75.30
2023-10-03T05:43:28.479Z,75.26
2023-10-03T05:44:28.506Z,75.80
2023-10-03T05:45:28.468Z,76.14
2023-10-03T05:46:28.465Z,75.63
2023-10-03T05:47:28.499Z,76.14
2023-10-03T05:48:30.540Z,76.68
2023-10-03T05:49:28.422Z,76.68
2023-10-03T05:50:28.470Z,76.95
2023-10-03T05:51:28.413Z,77.19
2023-10-03T05:52:28.396Z,77.19
2023-10-03T05:53:28.432Z,76.34
2023-10-03T05:54:28.386Z,76.04
2023-10-03T05:55:28.348Z,75.90
2023-10-03T05:56:28.345Z,75.80
2023-10-03T05:57:28.321Z,75.40
2023-10-03T05:58:28.341Z,75.80
2023-10-03T05:59:28.383Z,75.10
2023-10-03T06:00:28.290Z,75.70
2023-10-03T06:01:28.280Z,75.06
2023-10-03T06:02:28.315Z,74.86
2023-10-03T06:03:28.576Z,75.16
2023-10-03T06:04:28.381Z,75.20
2023-10-03T06:05:28.371Z,75.20
2023-10-03T06:06:28.224Z,75.40
2023-10-03T06:07:28.236Z,75.70
2023-10-03T06:08:28.262Z,75.56
2023-10-03T06:09:28.193Z,74.96
2023-10-03T06:10:28.180Z,75.06
2023-10-03T06:11:28.175Z,75.36
2023-10-03T06:12:28.169Z,75.26
2023-10-03T06:13:28.151Z,74.96
2023-10-03T06:14:28.170Z,75.06
2023-10-03T06:15:28.136Z,74.86
2023-10-03T06:16:28.137Z,74.76
2023-10-03T06:17:28.238Z,74.76
2023-10-03T06:18:28.214Z,74.66
2023-10-03T06:19:28.082Z,75.06
2023-10-03T06:20:28.150Z,74.76
2023-10-03T06:21:28.122Z,74.55
2023-10-03T06:22:28.067Z,74.55
2023-10-03T06:23:28.064Z,74.35
2023-10-03T06:24:28.044Z,74.15
2023-10-03T06:25:28.021Z,74.55
2023-10-03T06:26:28.121Z,74.35
2023-10-03T06:27:28.055Z,74.32
2023-10-03T06:28:27.986Z,74.26
2023-10-03T06:29:28.002Z,74.55
2023-10-03T06:30:27.965Z,74.42
2023-10-03T06:31:28.023Z,74.32
2023-10-03T06:32:27.976Z,74.32
2023-10-03T06:33:28.005Z,74.12
2023-10-03T06:34:27.927Z,73.92
2023-10-03T06:35:27.970Z,73.78
2023-10-03T06:36:27.938Z,73.82
2023-10-03T06:37:27.892Z,73.68
2023-10-03T06:38:27.879Z,73.48
2023-10-03T06:39:27.866Z,73.28
2023-10-03T06:40:27.883Z,73.04
2023-10-03T06:41:27.890Z,73.08
2023-10-03T06:42:27.827Z,73.24
2023-10-03T06:43:27.819Z,73.04
2023-10-03T06:44:27.831Z,73.24
2023-10-03T06:45:27.814Z,72.84
2023-10-03T06:46:27.821Z,72.84
2023-10-03T06:47:27.811Z,72.54
2023-10-03T06:48:27.822Z,72.44
2023-10-03T06:49:27.782Z,72.30
2023-10-03T06:50:27.807Z,72.41
2023-10-03T06:51:27.736Z,71.90
2023-10-03T06:52:27.721Z,72.20
2023-10-03T06:53:27.766Z,72.00
2023-10-03T06:54:27.710Z,71.26
2023-10-03T06:55:27.695Z,71.36
2023-10-03T06:56:27.732Z,71.26
2023-10-03T06:57:27.802Z,70.96
2023-10-03T06:58:27.660Z,70.93
2023-10-03T06:59:27.680Z,70.86
2023-10-03T07:00:27.645Z,71.03
2023-10-03T07:01:27.626Z,71.16
2023-10-03T07:02:27.653Z,71.13
2023-10-03T07:03:27.766Z,71.03
2023-10-03T07:04:27.691Z,71.03
2023-10-03T07:05:27.606Z,70.93
2023-10-03T07:06:27.571Z,70.43
2023-10-03T07:07:27.568Z,70.39
2023-10-03T07:08:27.607Z,70.19
2023-10-03T07:09:27.538Z,69.79
2023-10-03T07:10:27.529Z,70.46
2023-10-03T07:11:27.550Z,69.46
2023-10-03T07:12:27.545Z,69.66
2023-10-03T07:13:27.522Z,69.66
2023-10-03T07:14:27.689Z,69.46
2023-10-03T07:15:27.478Z,69.46
2023-10-03T07:16:27.494Z,69.46
2023-10-03T07:17:27.529Z,69.35
2023-10-03T07:18:27.681Z,69.26
2023-10-03T07:19:27.443Z,69.42
2023-10-03T07:20:27.453Z,68.92
2023-10-03T07:21:27.413Z,69.22
2023-10-03T07:22:27.422Z,68.89
2023-10-03T07:23:27.416Z,68.55
2023-10-03T07:24:27.444Z,67.62
2023-10-03T07:25:27.376Z,67.55
2023-10-03T07:26:27.384Z,67.12
2023-10-03T07:27:27.361Z,67.12
2023-10-03T07:28:27.356Z,66.39
2023-10-03T07:29:27.410Z,66.69
2023-10-03T07:30:27.417Z,65.55
2023-10-03T07:31:27.358Z,65.22
2023-10-03T07:32:28.774Z,65.52
2023-10-03T07:33:27.404Z,64.89
2023-10-03T07:34:27.276Z,64.79
2023-10-03T07:35:27.366Z,64.59
2023-10-03T07:36:27.274Z,64.06
2023-10-03T07:37:27.247Z,63.73
2023-10-03T07:38:27.279Z,63.76
2023-10-03T07:39:27.218Z,63.53
2023-10-03T07:40:27.209Z,63.13
2023-10-03T07:41:27.242Z,63.50
2023-10-03T07:42:27.194Z,63.00
2023-10-03T07:43:27.178Z,62.48
2023-10-03T07:44:27.439Z,62.48
2023-10-03T07:45:27.167Z,62.15
2023-10-03T07:46:27.792Z,61.32
2023-10-03T07:47:27.130Z,61.39
2023-10-03T07:48:27.184Z,60.19
2023-10-03T07:49:27.117Z,59.56
2023-10-03T07:50:27.174Z,59.23
2023-10-03T07:51:27.113Z,58.94
2023-10-03T07:52:27.078Z,58.71
2023-10-03T07:53:27.088Z,58.22
2023-10-03T07:54:27.058Z,58.69
2023-10-03T07:55:27.064Z,58.06
2023-10-03T07:56:27.203Z,57.79
2023-10-03T07:57:27.023Z,58.09
2023-10-03T07:58:27.009Z,58.06
2023-10-03T07:59:27.068Z,57.66
2023-10-03T08:00:27.020Z,57.01
2023-10-03T08:01:27.014Z,56.81
2023-10-03T08:02:27.179Z,56.38
2023-10-03T08:03:27.043Z,56.49
2023-10-03T08:04:27.208Z,55.36
2023-10-03T08:05:26.960Z,55.36
2023-10-03T08:06:26.929Z,55.27
2023-10-03T08:07:26.919Z,55.04
2023-10-03T08:08:26.922Z,55.44
2023-10-03T08:09:26.961Z,54.02
2023-10-03T08:10:26.881Z,54.20
2023-10-03T08:11:26.920Z,53.31
2023-10-03T08:12:26.871Z,52.66
2023-10-03T08:13:26.853Z,52.34
2023-10-03T08:14:26.863Z,52.41
2023-10-03T08:15:26.834Z,51.70
2023-10-03T08:16:26.860Z,50.90
2023-10-03T08:17:26.881Z,50.76
2023-10-03T08:18:26.918Z,50.26
2023-10-03T08:19:26.931Z,50.95
2023-10-03T08:20:27.913Z,50.88
2023-10-03T08:21:26.776Z,50.98
2023-10-03T08:22:26.763Z,50.29
2023-10-03T08:23:26.837Z,50.48
2023-10-03T08:24:26.799Z,51.07
2023-10-03T08:25:26.743Z,50.61
2023-10-03T08:26:26.783Z,51.00
2023-10-03T08:27:26.734Z,51.67
2023-10-03T08:28:26.715Z,50.98
2023-10-03T08:29:26.690Z,50.51
2023-10-03T08:30:26.706Z,51.75
2023-10-03T08:31:26.672Z,51.87
2023-10-03T08:32:26.833Z,52.29
2023-10-03T08:33:26.725Z,52.59
2023-10-03T08:34:26.661Z,52.69
2023-10-03T08:35:26.635Z,52.69
2023-10-03T08:36:26.615Z,52.69
2023-10-03T08:37:26.641Z,52.59
2023-10-03T08:38:26.593Z,52.39
2023-10-03T08:39:26.633Z,52.49
2023-10-03T08:40:26.571Z,52.69
2023-10-03T08:41:26.565Z,52.39
2023-10-03T08:42:26.574Z,52.59
2023-10-03T08:43:26.547Z,52.39
2023-10-03T08:44:26.535Z,53.28
2023-10-03T08:45:26.523Z,52.39
2023-10-03T08:46:26.548Z,52.69
2023-10-03T08:47:26.541Z,53.23
2023-10-03T08:48:26.607Z,53.85
2023-10-03T08:49:26.484Z,54.57
2023-10-03T08:50:26.470Z,54.77
2023-10-03T08:51:26.479Z,55.59
2023-10-03T08:52:26.449Z,55.52
2023-10-03T08:53:26.439Z,55.62
2023-10-03T08:54:26.434Z,55.72
2023-10-03T08:55:26.422Z,56.41
2023-10-03T08:56:26.430Z,56.32
2023-10-03T08:57:26.402Z,56.54
2023-10-03T08:58:26.484Z,56.34
2023-10-03T08:59:26.377Z,57.04
2023-10-03T09:00:26.876Z,57.06
2023-10-03T09:01:26.404Z,56.94
2023-10-03T09:02:26.424Z,56.57
2023-10-03T09:03:26.617Z,57.04
2023-10-03T09:04:26.381Z,57.17
2023-10-03T09:05:26.324Z,57.46
2023-10-03T09:06:26.316Z,57.66
2023-10-03T09:07:26.292Z,57.26
2023-10-03T09:08:26.278Z,57.17
2023-10-03T09:09:26.273Z,57.99
2023-10-03T09:10:26.277Z,57.89
2023-10-03T09:11:26.276Z,57.89
2023-10-03T09:12:26.257Z,58.09
2023-10-03T09:13:26.241Z,58.06
2023-10-03T09:14:26.247Z,57.66
2023-10-03T09:15:26.228Z,57.34
2023-10-03T09:16:26.244Z,57.04
2023-10-03T09:17:26.187Z,56.54
2023-10-03T09:18:26.228Z,56.44
2023-10-03T09:19:26.174Z,56.64
2023-10-03T09:20:26.191Z,56.51
2023-10-03T09:21:27.000Z,56.54
2023-10-03T09:22:26.170Z,56.84
2023-10-03T09:23:26.127Z,56.84
2023-10-03T09:24:26.124Z,56.61
2023-10-03T09:25:26.121Z,56.64
2023-10-03T09:26:26.092Z,57.04
2023-10-03T09:27:26.089Z,57.14
2023-10-03T09:28:26.088Z,56.84
2023-10-03T09:29:26.099Z,56.94
2023-10-03T09:30:26.066Z,57.14
2023-10-03T09:31:26.090Z,56.84
2023-10-03T09:32:26.044Z,56.12
2023-10-03T09:33:26.109Z,56.41
2023-10-03T09:34:26.005Z,56.41
2023-10-03T09:35:26.007Z,56.64
2023-10-03T09:36:26.013Z,57.04
2023-10-03T09:37:25.979Z,57.17
2023-10-03T09:38:25.983Z,57.26
2023-10-03T09:39:25.958Z,57.34
2023-10-03T09:40:25.941Z,57.36
2023-10-03T09:41:25.929Z,56.94
2023-10-03T09:42:25.928Z,57.01
2023-10-03T09:43:25.920Z,56.61
2023-10-03T09:44:25.897Z,56.59
2023-10-03T09:45:26.238Z,56.68
2023-10-03T09:46:25.921Z,56.38
2023-10-03T09:47:25.898Z,56.49
2023-10-03T09:48:26.275Z,56.59
2023-10-03T09:49:25.847Z,56.09
2023-10-03T09:50:25.842Z,56.49
2023-10-03T09:51:25.826Z,56.81
2023-10-03T09:52:25.864Z,56.98
2023-10-03T09:53:25.803Z,56.91
2023-10-03T09:54:26.032Z,57.41
2023-10-03T09:55:25.784Z,57.21
2023-10-03T09:56:25.794Z,57.31
2023-10-03T09:57:25.772Z,57.41
2023-10-03T09:58:25.838Z,57.41
2023-10-03T09:59:25.867Z,57.48
2023-10-03T10:00:25.731Z,57.58
2023-10-03T10:01:25.760Z,57.48
2023-10-03T10:02:25.745Z,57.18
2023-10-03T10:03:25.807Z,57.28
2023-10-03T10:04:25.863Z,56.95
2023-10-03T10:05:25.676Z,55.57
2023-10-03T10:06:25.696Z,56.53
2023-10-03T10:07:25.656Z,56.34
2023-10-03T10:08:25.668Z,56.34
2023-10-03T10:09:25.664Z,56.23
2023-10-03T10:10:25.660Z,56.34
2023-10-03T10:11:25.629Z,55.94
2023-10-03T10:12:25.612Z,56.23
2023-10-03T10:13:25.597Z,55.87
2023-10-03T10:14:25.587Z,57.15
2023-10-03T10:15:25.593Z,56.95
2023-10-03T10:16:25.614Z,57.68
2023-10-03T10:17:25.583Z,57.48
2023-10-03T10:18:25.621Z,57.25
2023-10-03T10:19:25.538Z,57.15
2023-10-03T10:20:25.539Z,56.43
2023-10-03T10:21:25.521Z,56.11
2023-10-03T10:22:25.505Z,55.71
2023-10-03T10:23:25.499Z,56.18
2023-10-03T10:24:25.500Z,56.28
2023-10-03T10:25:25.574Z,56.01
2023-10-03T10:26:25.490Z,55.98
2023-10-03T10:27:25.448Z,56.18
2023-10-03T10:28:25.449Z,56.08
2023-10-03T10:29:25.506Z,55.21
2023-10-03T10:30:25.448Z,55.91
2023-10-03T10:31:25.431Z,56.30
2023-10-03T10:32:25.394Z,56.40
2023-10-03T10:33:25.511Z,56.01
2023-10-03T10:34:25.389Z,55.44
2023-10-03T10:35:25.363Z,55.24
2023-10-03T10:36:25.355Z,55.74
2023-10-03T10:37:25.353Z,56.73
2023-10-03T10:38:25.343Z,56.06
2023-10-03T10:39:25.338Z,56.16
2023-10-03T10:40:25.343Z,56.19
2023-10-03T10:41:25.303Z,56.56
2023-10-03T10:42:25.294Z,56.46
2023-10-03T10:43:25.478Z,56.09
2023-10-03T10:44:25.269Z,56.68
2023-10-03T10:45:25.263Z,56.29
2023-10-03T10:46:25.280Z,56.78
2023-10-03T10:47:25.234Z,56.59
2023-10-03T10:48:25.314Z,56.19
2023-10-03T10:49:25.225Z,56.36
2023-10-03T10:50:25.205Z,55.59
2023-10-03T10:51:25.201Z,55.76
2023-10-03T10:52:25.202Z,56.46
2023-10-03T10:53:25.184Z,56.09
2023-10-03T10:54:25.164Z,56.06
2023-10-03T10:55:25.171Z,56.19
2023-10-03T10:56:25.165Z,56.19
2023-10-03T10:57:25.142Z,56.59
2023-10-03T10:58:25.122Z,56.36
2023-10-03T10:59:25.113Z,56.59
2023-10-03T11:00:25.102Z,56.26
2023-10-03T11:01:25.163Z,55.87
2023-10-03T11:02:25.087Z,56.06
2023-10-03T11:03:25.144Z,56.38
2023-10-03T11:04:25.095Z,56.29
2023-10-03T11:05:25.049Z,56.38
2023-10-03T11:06:25.373Z,56.09
2023-10-03T11:07:25.039Z,56.19
2023-10-03T11:08:25.018Z,56.09
2023-10-03T11:09:25.012Z,55.19
2023-10-03T11:10:34.813Z,55.49
2023-10-03T11:11:26.003Z,55.99
2023-10-03T11:12:24.995Z,56.12
2023-10-03T11:13:24.962Z,56.19
2023-10-03T11:14:24.955Z,56.09
2023-10-03T11:15:24.940Z,56.19
2023-10-03T11:16:24.975Z,55.89
2023-10-03T11:17:24.916Z,56.09
2023-10-03T11:18:25.112Z,56.19
2023-10-03T11:19:24.987Z,56.09
2023-10-03T11:20:24.900Z,56.38
2023-10-03T11:21:24.905Z,56.02
2023-10-03T11:22:24.884Z,55.62
2023-10-03T11:23:24.854Z,55.79
2023-10-03T11:24:24.855Z,55.79
2023-10-03T11:25:24.896Z,55.49
2023-10-03T11:26:24.845Z,55.29
2023-10-03T11:27:24.814Z,55.49
2023-10-03T11:28:24.873Z,55.40
2023-10-03T11:29:24.807Z,55.40
2023-10-03T11:30:24.821Z,55.59
2023-10-03T11:31:24.826Z,55.29
2023-10-03T11:32:24.798Z,55.40
2023-10-03T11:33:24.820Z,55.49
2023-10-03T11:34:24.746Z,55.59
2023-10-03T11:35:24.738Z,55.62
2023-10-03T11:36:24.715Z,55.22
2023-10-03T11:37:24.700Z,55.42
2023-10-03T11:38:24.690Z,55.32
2023-10-03T11:39:24.706Z,55.52
2023-10-03T11:40:25.204Z,55.72
2023-10-03T11:41:24.658Z,55.72
2023-10-03T11:42:24.663Z,56.21
2023-10-03T11:43:24.641Z,56.41
2023-10-03T11:44:24.672Z,56.12
2023-10-03T11:45:24.863Z,56.61
2023-10-03T11:46:24.632Z,56.12
2023-10-03T11:47:24.620Z,56.21
2023-10-03T11:48:24.754Z,56.32
2023-10-03T11:49:24.587Z,56.64
2023-10-03T11:50:24.613Z,56.64
2023-10-03T11:51:24.553Z,56.64
2023-10-03T11:52:24.559Z,56.64
2023-10-03T11:53:24.779Z,56.84
2023-10-03T11:54:24.525Z,56.84
2023-10-03T11:55:24.511Z,57.14
2023-10-03T11:56:24.505Z,56.84
2023-10-03T11:57:24.544Z,57.04
2023-10-03T11:58:24.508Z,57.36
2023-10-03T11:59:24.466Z,56.94
2023-10-03T12:00:24.482Z,57.66
2023-10-03T12:01:24.488Z,57.17
2023-10-03T12:02:24.450Z,57.66
2023-10-03T12:03:24.564Z,57.34
2023-10-03T12:04:24.452Z,57.66
2023-10-03T12:05:24.403Z,57.76
2023-10-03T12:06:24.398Z,57.86
2023-10-03T12:07:24.392Z,57.76
2023-10-03T12:08:24.399Z,57.86
2023-10-03T12:09:24.389Z,57.86
2023-10-03T12:10:24.355Z,57.76
2023-10-03T12:11:24.349Z,57.86
2023-10-03T12:12:24.345Z,58.16
2023-10-03T12:13:24.331Z,57.86
2023-10-03T12:14:24.337Z,58.06
2023-10-03T12:15:25.192Z,57.86
2023-10-03T12:16:24.356Z,57.76
2023-10-03T12:17:24.295Z,57.76
2023-10-03T12:18:24.286Z,57.86
2023-10-03T12:19:24.256Z,57.96
2023-10-03T12:20:24.264Z,57.76
2023-10-03T12:21:24.274Z,57.86
2023-10-03T12:22:24.219Z,57.76
2023-10-03T12:23:24.209Z,57.76
2023-10-03T12:24:24.216Z,57.56
2023-10-03T12:25:24.224Z,58.65
2023-10-03T12:26:27.782Z,58.28
2023-10-03T12:27:24.189Z,58.78
2023-10-03T12:28:24.161Z,58.56
2023-10-03T12:29:24.139Z,58.18
2023-10-03T12:30:24.141Z,57.89
2023-10-03T12:31:24.158Z,58.78
2023-10-03T12:32:24.133Z,57.89
2023-10-03T12:33:24.189Z,57.89
2023-10-03T12:34:24.090Z,58.65
2023-10-03T12:35:24.107Z,58.65
2023-10-03T12:36:24.064Z,58.56
2023-10-03T12:37:24.081Z,58.86
2023-10-03T12:38:24.047Z,58.86
2023-10-03T12:39:24.055Z,58.65
2023-10-03T12:40:24.035Z,58.45
2023-10-03T12:41:24.008Z,58.06
2023-10-03T12:42:24.001Z,58.56
2023-10-03T12:43:23.987Z,58.65
2023-10-03T12:44:23.995Z,57.96
2023-10-03T12:45:23.992Z,57.86
2023-10-03T12:46:23.987Z,58.06
2023-10-03T12:47:24.044Z,58.65
2023-10-03T12:48:24.071Z,58.86
2023-10-03T12:49:23.937Z,59.35
2023-10-03T12:50:23.916Z,59.18
2023-10-03T12:51:23.905Z,58.75
2023-10-03T12:52:23.889Z,58.98